logo
App data

Totally Unbalanced

Store | Hub | SteamDB | Site
Developer: Isojumper Publisher: OtakuMaker.com
Genre: Action, Adventure, Casual, Indie, Racing
Languages: English
Tags: Racing (32), Adventure (21), Casual (21), Action (21), Indie (21), Puzzle (14), Great Soundtrack (12), Puzzle-Platformer (12), Multiplayer (12), Singleplayer (12), Arcade (12), Runner (12), Funny (11), Platformer (11), Fantasy (11), Character Customization (11), Action-Adventure (11), Atmospheric (11), Stylized (11)
Category: Single-player, Multi-player, Online Multi-Player, Co-op, Cross-Platform Multiplayer, Steam Achievements, Full controller support, Steam Trading Cards, Steam Cloud, Steam Leaderboards, Steam Turn Notifications
Release date: Jul 29, 2016
Price: $2.99
Old userscore: 84% Owners: 0 .. 20,000
Followers: 464
Peak concurrent players yesterday: 1
Playtime in the last 2 weeks: 01:50 (average) 01:50 (median)
Playtime total: 02:47 (average) 03:05 (median)

Steam Spy is still in beta, so expect major bugs.

Owners data:

Access restricted.

This feature is only available to users with special access rights. Sorry.

If you want to proceed, you need to register or log in first and then back Steam Spy on Patreon. Look for Indie or Pro pledge.

Don't forget to use the same email as on Steam Spy!

Audience in 2 weeks:

Access restricted.

This feature is only available to users with special access rights. Sorry.

If you want to proceed, you need to register or log in first and then back Steam Spy on Patreon. Look for Indie or Pro pledge.

Don't forget to use the same email as on Steam Spy!

Peak daily concurrent players:

CCU data courtesy of SteamDB. Used with permission.

Hourly concurrent players:

YouTube:

The views data is based on top 50 videos uploaded last week. Actual number of views might be more than the number shown.

The displayed number of videos uploaded yesterday is limited to 50, so if there were more videos uploaded, the number will still show 50.

If the game has commonly used word as its name (like "FEAR" or "Volume") its number of Youtube views might be wrong.

Games similar to this one:

# Game Release date
Price
Score rank
(Userscore / Metascore)
Owners
Players
Playtime (Median)
1 Night Blights Apr 15, 2016 $4.99N/A (N/A)0 .. 20,0000%00:00 (00:00)
2 Hustle Cat Mar 16, 2016 $19.99N/A (N/A)20,000 .. 50,0000%00:00 (00:00)
3 Luxor Evolved Mar 1, 2012 $9.99N/A (N/A)50,000 .. 100,0000%00:00 (00:00)
4 Carrie's Order Up! Sep 12, 2016 $2.99N/A (N/A)0 .. 20,0000%00:00 (00:00)
5 Chip's Challenge 2 May 28, 2015 $4.99N/A (N/A)20,000 .. 50,0006.67%00:13 (00:04)
6 Beat Da Beat Mar 10, 2016 $1.99N/A (N/A)0 .. 20,00014.29%00:19 (00:06)
7 A Good Snowman Is Hard To Build Feb 25, 2015 $9.9990% (95%)0 .. 20,0000%00:00 (00:00)
8 [the Sequence] Mar 30, 2016 $1.99N/A (N/A)0 .. 20,0000%00:00 (00:00)
9 Think To Die 3 Mar 27, 2017 $4.99N/A (N/A)0 .. 20,0000%00:00 (00:00)
10 Swapperoo Dec 18, 2015 $4.99N/A (N/A)0 .. 20,0000%00:00 (00:00)
11 Tennis in the Face Nov 18, 2015 $4.99N/A (N/A)0 .. 20,0000%00:00 (00:00)
12 Girls Like Robots Feb 14, 2014 $6.99N/A (N/A)100,000 .. 200,0001.02%00:20 (00:06)
13 12 Labours of Hercules Mar 23, 2015 $0.74N/A (N/A)100,000 .. 200,0000.43%00:30 (00:10)
14 Frog Climbers Oct 6, 2016 $6.99N/A (N/A)50,000 .. 100,0000%00:00 (00:00)
15 Grapple Mar 9, 2015 $7.99N/A (N/A)20,000 .. 50,0000%00:00 (00:00)
16 SquareCells Dec 7, 2015 $2.99N/A (N/A)20,000 .. 50,0000%00:00 (00:00)
17 Tribloos 2 Jan 30, 2014 $0.99N/A (N/A)100,000 .. 200,0002.14%06:39 (07:20)
18 Earthtongue Apr 27, 2015 $4.99N/A (N/A)0 .. 20,0000%00:00 (00:00)
19 Koala Kids Jun 22, 2015 $0.99N/A (N/A)20,000 .. 50,0001.64%00:01 (00:00)
20 The Jackbox Party Pack Nov 26, 2014 $24.9973% (91%)200,000 .. 500,0000%00:00 (00:00)
21 On Rusty Trails Jun 13, 2016 $12.9969% (90%/77%)50,000 .. 100,0003.17%12:42 (05:24)
22 Dec 28, 2016 $9.99N/A (N/A)0 .. 20,0000%00:00 (00:00)
23 Clock Simulator Jul 20, 2016 $0.99N/A (N/A)20,000 .. 50,0000%00:00 (00:00)
24 Darkarta: A Broken Heart's Quest Collector's Edition Mar 8, 2017 $5.9966% (89%)20,000 .. 50,0000%00:00 (00:00)
25 This Starry Midnight We Make Jun 1, 2015 $9.99N/A (N/A)0 .. 20,0000%00:00 (00:00)
26 The Reject Demon: Toko Chapter 0 Prelude May 8, 2015 $4.99N/A (N/A)0 .. 20,0000%00:00 (00:00)
27 Forgotten, Not Lost - A Kinetic Novel Apr 1, 2016 $1.9966% (89%)100,000 .. 200,00014.71%04:00 (04:24)
28 Vampires: Guide Them to Safety! Oct 22, 2014 $4.99N/A (N/A)0 .. 20,0000%00:00 (00:00)
29 12 Labours of Hercules IV: Mother Nature (Platinum Edition) Dec 25, 2015 $2.99N/A (N/A)20,000 .. 50,0000%00:00 (00:00)
30 Without Within 2 Nov 9, 2015 $4.99N/A (N/A)0 .. 20,0000%00:00 (00:00)
31 Bob Was Hungry Aug 19, 2015 $9.99N/A (N/A)20,000 .. 50,0003.28%03:58 (01:54)
32 Recursion Deluxe Feb 12, 2016 $4.99N/A (N/A)0 .. 20,0000%00:00 (00:00)
33 Psycho Starship Rampage Sep 28, 2015 $9.99N/A (N/A)0 .. 20,0000%00:00 (00:00)
34 Loot Hound Nov 17, 2015 $4.99N/A (N/A)0 .. 20,0000%00:00 (00:00)
35 12 Labours of Hercules V: Kids of Hellas (Platinum Edition) Jun 17, 2016 $2.99N/A (N/A)20,000 .. 50,0001.43%03:39 (01:13)
36 Griptape Backbone May 5, 2017 FreeN/A (N/A)0 .. 20,0000%00:00 (00:00)
37 In Between Aug 21, 2015 $11.99N/A (N/A/68%)50,000 .. 100,0000.65%00:04 (00:01)
38 Thrillville: Off the Rails Jul 8, 2009 $9.9963% (88%/70%)20,000 .. 50,0000%00:00 (00:00)
39 Cursed Sight Aug 3, 2015 $5.99N/A (N/A)0 .. 20,0000%00:00 (00:00)
40 Oozi: Earth Adventure Dec 5, 2013 $4.99N/A (N/A/66%)100,000 .. 200,0000%00:00 (00:00)
41 Army of Pixels Oct 29, 2015 $4.99N/A (N/A)0 .. 20,0000%00:00 (00:00)
42 Sophie's Curse Mar 16, 2016 $1.49N/A (N/A)20,000 .. 50,0000%00:00 (00:00)
43 Asphyxia Aug 4, 2015 $5.99N/A (N/A)20,000 .. 50,0000%00:00 (00:00)
44 Alpha Runner Sep 2, 2015 $0.99N/A (N/A)50,000 .. 100,0000%00:00 (00:00)
45 Anode Oct 5, 2015 $3.99N/A (N/A)0 .. 20,0000%00:00 (00:00)
46 Dead Man's Draw Feb 6, 2014 $6.99N/A (N/A)20,000 .. 50,0000%00:00 (00:00)
47 BAD END Nov 25, 2015 $1.99N/A (N/A)0 .. 20,0000%00:00 (00:00)
48 Governor of Poker 2 - Premium Edition Oct 11, 2010 $14.9951% (84%)20,000 .. 50,0000%00:00 (00:00)
49 Magma Tsunami Jun 1, 2016 $0.99N/A (N/A)100,000 .. 200,0000%00:00 (00:00)
50 Sentinel 4: Dark Star Aug 13, 2015 $6.99N/A (N/A)0 .. 20,0000%00:00 (00:00)
51 RePete Mar 9, 2016 $1.99N/A (N/A)20,000 .. 50,0002.04%04:15 (01:25)
52 Air Missions: HIND Jun 14, 2017 $16.99N/A (N/A)0 .. 20,0000%00:00 (00:00)
53 Cyto Jul 10, 2014 $3.99N/A (N/A)20,000 .. 50,0000%00:00 (00:00)
54 Cute Things Dying Violently Sep 2, 2015 $2.99N/A (N/A)0 .. 20,0000%00:00 (00:00)
55 Gridworld Dec 24, 2015 $0.99N/A (N/A)0 .. 20,0000%00:00 (00:00)
56 Steam and Metal Feb 9, 2015 $4.99N/A (N/A)0 .. 20,0003.23%02:55 (00:58)
57 Collisions Jul 28, 2015 $3.99N/A (N/A)20,000 .. 50,0000%00:00 (00:00)
58 Star Sky - Oct 23, 2015 $3.99N/A (N/A)0 .. 20,0000%00:00 (00:00)
59 Stay Alight Mar 2, 2015 $3.99N/A (N/A)20,000 .. 50,0000%00:00 (00:00)
60 Job the Leprechaun Jul 31, 2015 $0.99N/A (N/A)20,000 .. 50,0000.85%01:32 (00:30)
61 Archimedes Oct 6, 2016 $2.99N/A (N/A)20,000 .. 50,0000%00:00 (00:00)
62 Space Drifters 2D Mar 28, 2016 $0.99N/A (N/A)0 .. 20,0000%00:00 (00:00)
63 hackmud Sep 22, 2016 $19.9941% (80%)20,000 .. 50,0000%00:00 (00:00)
64 Fate Tectonics Sep 9, 2015 $0.99N/A (N/A)0 .. 20,0000%00:00 (00:00)
65 The Last NightMary - A Lenda do Cabea de Cuia Nov 2, 2015 $0.49N/A (N/A)50,000 .. 100,0000%00:00 (00:00)
66 Egg Returns Home May 5, 2015 $1.99N/A (N/A)20,000 .. 50,0000%00:00 (00:00)
67 Terraform May 8, 2015 $2.99N/A (N/A)0 .. 20,0000%00:00 (00:00)
68 GamersGoMakers Aug 8, 2014 $9.99N/A (N/A)20,000 .. 50,0000%00:00 (00:00)
69 Farm for your Life Jun 16, 2014 $9.99N/A (N/A)20,000 .. 50,0000%00:00 (00:00)
70 Optika Aug 26, 2016 $4.99N/A (N/A)20,000 .. 50,0000%00:00 (00:00)
71 Neon Prism Nov 18, 2016 $0.49N/A (N/A)50,000 .. 100,0000.4%00:01 (00:00)
72 Particulars Nov 19, 2014 $5.99N/A (N/A/74%)20,000 .. 50,0000%00:00 (00:00)
73 Rescue Team 5 Nov 18, 2015 $1.99N/A (N/A)20,000 .. 50,0000%00:00 (00:00)
74 The Survey Oct 27, 2016 $4.99N/A (N/A)0 .. 20,0000%00:00 (00:00)
75 Paranormal State: Poison Spring Apr 9, 2014 $9.99N/A (N/A)20,000 .. 50,0000%00:00 (00:00)
76 SinaRun Oct 26, 2015 $2.99N/A (N/A)0 .. 20,0009.09%01:12 (00:24)
77 Pixel Puzzles 2: Birds Feb 20, 2015 $9.99N/A (N/A)100,000 .. 200,0000.43%02:58 (00:59)
78 The Deletion Jul 30, 2015 $1.99N/A (N/A)20,000 .. 50,0000%00:00 (00:00)
79 Caravanserail Mar 10, 2016 $2.99N/A (N/A)0 .. 20,0001.45%03:00 (01:00)
80 Western FPS Mar 13, 2017 $0.99N/A (N/A)100,000 .. 200,0000%00:00 (00:00)
81 Where are my Internets? Dec 16, 2016 $2.99N/A (N/A)0 .. 20,0000%00:00 (00:00)
82 Kombine Oct 14, 2016 $0.9932% (75%)20,000 .. 50,0000%00:00 (00:00)
83 Beeftacular Aug 26, 2016 $2.99N/A (N/A)0 .. 20,0000%00:00 (00:00)
84 Idle Evolution Apr 3, 2017 $4.99N/A (N/A)0 .. 20,00025%09:34 (04:47)
85 Turbo Pug 3D Sep 20, 2016 $1.9928% (73%)200,000 .. 500,0000.31%03:23 (02:10)
86 GO AWAY, THERE'S KUMIS OVER THERE! Oct 28, 2016 $0.9928% (73%)50,000 .. 100,0000%00:00 (00:00)
87 Lift It Jan 20, 2017 $4.99N/A (N/A)20,000 .. 50,0000%00:00 (00:00)
88 MOAI 2: Path to Another World Jul 16, 2015 $7.99N/A (N/A)0 .. 20,0000%00:00 (00:00)
89 ConflictCraft Dec 8, 2016 $1.49N/A (N/A)20,000 .. 50,0000.86%00:05 (00:01)
90 Axel & Pixel Oct 6, 2010 $4.99N/A (N/A)0 .. 20,0000%00:00 (00:00)
91 Laserlife Sep 22, 2015 $14.99N/A (N/A)0 .. 20,0000%00:00 (00:00)
92 Zipple World Jan 19, 2016 $4.99N/A (N/A)0 .. 20,0000%00:00 (00:00)
93 Racecraft Mar 4, 2016 $19.99N/A (N/A)0 .. 20,0000%00:00 (00:00)
94 Wanda - A Beautiful Apocalypse Jun 3, 2016 $0.99N/A (N/A)50,000 .. 100,0000.96%01:31 (00:30)
95 Pester Aug 21, 2015 $0.99N/A (N/A)100,000 .. 200,0000.33%02:06 (00:42)
96 Sinister City Oct 20, 2014 $0.99N/A (N/A)100,000 .. 200,0000%00:00 (00:00)
97 1931: Scheherazade at the Library of Pergamum Mar 26, 2015 $24.99N/A (N/A)0 .. 20,0000%00:00 (00:00)
98 Love in the Glen Jun 8, 2016 $5.99N/A (N/A)0 .. 20,0003.77%02:04 (00:42)
99 Marble Duel Nov 12, 2015 $4.99N/A (N/A)100,000 .. 200,0002.7%00:54 (00:54)
100 One Last Chance Apr 7, 2016 $3.99N/A (N/A)0 .. 20,0003.64%01:49 (00:42)
101 Mind Games Mar 4, 2016 $2.99N/A (N/A)0 .. 20,0000%00:00 (00:00)
102 Herding Dog Jan 15, 2016 $2.99N/A (N/A)0 .. 20,0000%00:00 (00:00)
103 Broken Dreams Feb 19, 2016 $1.99N/A (N/A)100,000 .. 200,0001.24%04:32 (05:45)
104 Fergus The Fly Feb 1, 2017 $0.99N/A (N/A)200,000 .. 500,0002.87%04:01 (04:16)
105 FBI MANIA Jan 31, 2017 $0.99N/A (N/A)50,000 .. 100,0000.44%00:49 (00:16)
106 Alter World May 29, 2015 $1.99N/A (N/A)100,000 .. 200,0000%00:00 (00:00)
107 Highborn Feb 19, 2013 $1.99N/A (N/A)0 .. 20,0000%00:00 (00:00)
108 XCavalypse Jun 6, 2016 $5.99N/A (N/A)0 .. 20,0000%00:00 (00:00)
109 Winexy Jan 13, 2017 $0.99N/A (N/A)20,000 .. 50,0000%00:00 (00:00)
110 Won't You Be My Laser? Sep 2, 2016 $0.99N/A (N/A)0 .. 20,0000%00:00 (00:00)
111 Goodnight Butcher Dec 18, 2015 $1.99N/A (N/A)20,000 .. 50,0000%00:00 (00:00)
112 Bloop Reloaded Feb 6, 2015 $9.99N/A (N/A)100,000 .. 200,0000.31%00:01 (00:00)
113 One way to exit Mar 12, 2016 $1.99N/A (N/A)200,000 .. 500,0000%00:00 (00:00)
114 Football Blitz Jan 4, 2017 $3.99N/A (N/A)20,000 .. 50,0002.13%03:58 (01:19)
115 Power of Love Jul 21, 2015 $4.99N/A (N/A)20,000 .. 50,0000%00:00 (00:00)
116 Star Chronicles: Delta Quadrant Jul 7, 2015 $0.99N/A (N/A)200,000 .. 500,0000.15%01:16 (00:25)
117 Dance Magic Feb 15, 2016 $9.99N/A (N/A)0 .. 20,0000%00:00 (00:00)
118 Bunny & Piggy Nov 30, 2016 $0.99N/A (N/A)50,000 .. 100,00014.18%03:56 (04:05)
119 Way of Gold and Steel Aug 17, 2015 $8.99N/A (N/A)20,000 .. 50,0000%00:00 (00:00)
120 Wildlife Park 2 - Dino World Jul 17, 2014 $3.99N/A (N/A)20,000 .. 50,0000%00:00 (00:00)
121 King's Guard TD Jun 8, 2016 $0.99N/A (N/A)100,000 .. 200,0000.84%03:19 (01:31)
122 Backgammon Blitz Nov 12, 2015 $3.99N/A (N/A)0 .. 20,0000%00:00 (00:00)
123 Sky to Fly: Soulless Leviathan Jul 22, 2016 $3.99N/A (N/A)0 .. 20,0000%00:00 (00:00)
124 Drizzlepath Mar 12, 2015 $2.99N/A (N/A)0 .. 20,0000%00:00 (00:00)
125 Reptilian Rebellion Aug 7, 2016 $0.99N/A (N/A)20,000 .. 50,0001.96%02:32 (01:41)
126 Astro Emporia Feb 2, 2015 $0.99N/A (N/A)0 .. 20,0000%00:00 (00:00)
127 Color Syndrome Aug 1, 2016 $0.99N/A (N/A)20,000 .. 50,0000%00:00 (00:00)
128 Quantum Rush Champions Dec 4, 2014 $9.99N/A (N/A)20,000 .. 50,0000%00:00 (00:00)
129 Rage Runner May 16, 2014 $4.99N/A (N/A)20,000 .. 50,0000%00:00 (00:00)
130 Melting Hearts: Our Love Will Grow 2 Apr 29, 2016 $4.99N/A (N/A)0 .. 20,0000%00:00 (00:00)
131 Autumn May 14, 2016 $2.99N/A (N/A)50,000 .. 100,0000%00:00 (00:00)
132 Ninja Stealth 2 Jan 30, 2017 $0.49N/A (N/A)0 .. 20,0001.54%11:50 (03:56)
133 iREC Jan 16, 2017 Free4% (43%)20,000 .. 50,0006.9%04:11 (04:25)
134 Burst Mar 14, 2016 $1.99N/A (N/A)100,000 .. 200,0000%00:00 (00:00)
135 Streets of Chaos Jan 28, 2015 $0.99N/A (N/A)100,000 .. 200,0000%00:00 (00:00)
136 Space Hotel Jan 4, 2017 $1.99N/A (N/A)0 .. 20,0000%00:00 (00:00)
137 European Ship Simulator Nov 4, 2016 $19.99N/A (N/A)50,000 .. 100,0000%00:00 (00:00)
138 Hide and Secret Treasure of the Ages Jun 17, 2016 $0.98N/A (N/A)0 .. 20,0000%00:00 (00:00)
139 Labyrinth Simulator Sep 21, 2015 $4.99N/A (N/A)0 .. 20,0000%00:00 (00:00)
140 Industry Transporters Aug 31, 2015 $9.99N/A (N/A)0 .. 20,0000%00:00 (00:00)
141 Robot vs Birds Zombies Jul 23, 2015 $0.99N/A (N/A)0 .. 20,0000%00:00 (00:00)
142 Hyposphere May 5, 2016 $2.99N/A (N/A)100,000 .. 200,0000.3%01:41 (00:33)
143 Cyber Team Manager Jan 18, 2016 $4.99N/A (N/A)0 .. 20,0000%00:00 (00:00)

Owners of this game also own:

Access restricted.

This feature is only available to users with special access rights. Sorry.

If you want to proceed, you need to register or log in first and then back Steam Spy on Patreon. Look for Indie or Pro pledge.

Don't forget to use the same email as on Steam Spy!

Playtime distribution:

Access restricted.

This feature is only available to users with special access rights. Sorry.

If you want to proceed, you need to register or log in first and then back Steam Spy on Patreon. Look for Indie or Pro pledge.

Don't forget to use the same email as on Steam Spy!

Playtime (2 weeks):

Access restricted.

This feature is only available to users with special access rights. Sorry.

If you want to proceed, you need to register or log in first and then back Steam Spy on Patreon. Look for Indie or Pro pledge.

Don't forget to use the same email as on Steam Spy!

User reviews:

Login required.

Please register or log in to see this information.